Time;durP1;ratioP1;P1;durP2;ratioP2;P2;SDS_P1;SDS_P2;PMS_P1;PMS_P2;Temp;Humidity;BMP_temperature;BMP_pressure;BME280_temperature;BME280_humidity;BME280_pressure;Samples;Min_cycle;Max_cycle;Signal;HPM_P1;HPM_P2
2024/04/05 00:00:18;;;;;;;2.00;1.40;;;;;;;6.00;89.72;96610.41;7400601;19;20066;-55
2024/04/05 00:02:46;;;;;;;1.70;1.60;;;;;;;6.02;89.41;96621.59;7398987;19;19995;-56
2024/04/05 00:05:12;;;;;;;4.10;1.60;;;;;;;5.59;90.62;96617.16;7400401;19;20484;-56
2024/04/05 00:07:39;;;;;;;3.20;1.60;;;;;;;5.57;90.75;96617.22;7398517;19;20119;-56
2024/04/05 00:10:08;;;;;;;2.47;1.38;;;;;;;5.80;90.01;96619.41;7400511;19;20011;-57
2024/04/05 00:12:35;;;;;;;1.88;1.50;;;;;;;5.81;89.67;96617.69;7400490;19;20006;-62
2024/04/05 00:15:01;;;;;;;6.40;1.50;;;;;;;5.74;89.78;96626.44;7399730;19;19999;-57
2024/04/05 00:17:27;;;;;;;1.90;1.30;;;;;;;5.69;90.61;96626.53;7399952;19;20466;-62
2024/04/05 00:19:53;;;;;;;3.25;1.67;;;;;;;5.57;90.94;96618.06;7399760;19;19999;-53
2024/04/05 00:22:22;;;;;;;1.83;1.50;;;;;;;5.82;89.16;96625.41;7399832;19;20006;-53
2024/04/05 00:24:48;;;;;;;3.85;1.42;;;;;;;5.74;89.22;96611.72;7400126;19;19998;-59
2024/04/05 00:27:14;;;;;;;4.55;1.45;;;;;;;5.33;92.64;96621.06;7398051;19;20019;-60
2024/04/05 00:29:39;;;;;;;2.97;1.40;;;;;;;5.21;92.86;96622.09;7399908;19;20033;-60
2024/04/05 00:32:05;;;;;;;4.65;1.35;;;;;;;5.13;93.24;96617.03;7399506;19;20469;-59
2024/04/05 00:34:31;;;;;;;3.42;1.65;;;;;;;5.24;93.66;96606.50;7399706;19;20011;-54
2024/04/05 00:36:56;;;;;;;2.40;1.58;;;;;;;5.29;93.31;96618.50;7399306;19;20381;-59
2024/04/05 00:39:22;;;;;;;5.80;1.58;;;;;;;5.28;93.09;96609.03;7399224;19;20019;-56
2024/04/05 00:41:47;;;;;;;2.70;1.40;;;;;;;5.33;92.78;96613.28;7399255;19;19999;-58
2024/04/05 00:44:13;;;;;;;2.35;1.27;;;;;;;5.17;93.97;96609.19;7398962;19;20005;-57
2024/04/05 00:46:38;;;;;;;4.22;1.40;;;;;;;5.25;93.66;96603.88;7397942;19;20006;-56
2024/04/05 00:49:04;;;;;;;1.98;1.23;;;;;;;5.24;93.58;96607.34;7398950;19;19995;-61
2024/04/05 00:51:31;;;;;;;4.30;1.60;;;;;;;5.29;92.76;96599.47;7399136;19;20002;-60
2024/04/05 00:53:57;;;;;;;4.85;1.63;;;;;;;5.22;93.21;96606.53;7398594;19;19999;-62
2024/04/05 00:56:24;;;;;;;2.38;1.35;;;;;;;5.12;93.20;96591.97;7399161;19;20042;-60
2024/04/05 00:58:50;;;;;;;3.60;1.15;;;;;;;5.02;93.71;96597.31;7398567;19;19998;-61
2024/04/05 01:01:16;;;;;;;1.77;1.30;;;;;;;5.00;93.45;96601.63;7398901;19;20054;-63
2024/04/05 01:03:41;;;;;;;3.55;1.33;;;;;;;5.02;94.26;96606.81;7397309;19;20384;-56
2024/04/05 01:06:08;;;;;;;3.13;1.40;;;;;;;4.91;95.30;96609.56;7397994;19;20007;-61
2024/04/05 01:08:33;;;;;;;3.22;1.30;;;;;;;4.94;95.23;96606.94;7398157;19;20003;-56
2024/04/05 01:10:59;;;;;;;3.00;1.20;;;;;;;4.98;95.94;96607.72;7398064;19;19995;-59
2024/04/05 01:13:25;;;;;;;2.50;1.45;;;;;;;4.94;96.45;96609.53;7398537;19;20014;-59
2024/04/05 01:15:50;;;;;;;17.20;8.10;;;;;;;4.90;97.12;96602.66;7397918;19;20014;-63
2024/04/05 01:18:16;;;;;;;4.13;2.47;;;;;;;4.88;96.55;96607.03;7398212;19;20094;-63
2024/04/05 01:20:43;;;;;;;5.93;2.90;;;;;;;5.10;95.13;96609.28;7398193;19;20372;-61
2024/04/05 01:23:11;;;;;;;7.13;3.03;;;;;;;5.12;94.40;96612.72;7398043;19;20037;-60
2024/04/05 01:25:36;;;;;;;5.00;2.88;;;;;;;4.85;95.68;96620.03;7396315;19;20002;-61
2024/04/05 01:28:04;;;;;;;4.82;3.10;;;;;;;4.90;95.56;96615.63;7395691;19;19991;-62
2024/04/05 01:30:29;;;;;;;5.57;2.85;;;;;;;4.87;96.29;96620.84;7397461;19;20341;-56
2024/04/05 01:33:00;;;;;;;5.85;2.92;;;;;;;4.76;96.00;96624.44;7397447;19;20054;-56
2024/04/05 01:35:29;;;;;;;6.00;2.00;;;;;;;4.62;96.65;96629.81;7397450;19;19999;-60
2024/04/05 01:37:55;;;;;;;2.60;1.50;;;;;;;4.54;96.83;96611.78;7397730;19;19998;-58
2024/04/05 01:40:22;;;;;;;2.60;1.52;;;;;;;4.59;97.15;96624.69;7397542;19;20002;-60
2024/04/05 01:42:47;;;;;;;3.53;1.40;;;;;;;4.51;97.21;96626.50;7395927;19;20349;-58
2024/04/05 01:45:13;;;;;;;4.25;1.70;;;;;;;4.34;97.46;96627.56;7396950;19;19995;-59
2024/04/05 01:47:39;;;;;;;2.55;1.15;;;;;;;4.18;98.70;96634.63;7395338;19;20005;-57
2024/04/05 01:50:06;;;;;;;4.45;1.60;;;;;;;4.24;98.90;96628.56;7396828;19;20066;-60
2024/04/05 01:52:32;;;;;;;2.88;1.33;;;;;;;4.22;98.57;96632.88;7396696;19;20470;-56
2024/04/05 01:54:58;;;;;;;1.60;1.50;;;;;;;4.27;98.00;96631.09;7397198;19;20023;-59
2024/04/05 01:57:24;;;;;;;2.35;1.48;;;;;;;4.35;97.73;96631.00;7396537;19;20013;-58
2024/04/05 01:59:52;;;;;;;2.55;1.60;;;;;;;4.40;97.66;96621.47;7396949;19;20010;-57
2024/04/05 02:02:18;;;;;;;4.45;1.73;;;;;;;4.37;98.05;96634.44;7396303;19;20006;-61
2024/04/05 02:04:44;;;;;;;1.40;1.20;;;;;;;4.32;98.76;96631.03;7395170;19;20009;-59
2024/04/05 02:07:09;;;;;;;1.90;1.30;;;;;;;4.13;99.36;96631.25;7395147;19;20007;-59
2024/04/05 02:09:35;;;;;;;2.20;1.40;;;;;;;4.08;99.40;96627.84;7396539;19;20005;-57
2024/04/05 02:12:01;;;;;;;1.42;1.33;;;;;;;4.03;99.27;96630.47;7396494;19;20005;-54
2024/04/05 02:14:27;;;;;;;2.55;1.30;;;;;;;4.00;99.94;96633.13;7396325;19;20003;-58
2024/04/05 02:16:57;;;;;;;2.75;1.40;;;;;;;4.00;99.86;96628.78;7395994;19;20005;-59
2024/04/05 02:19:23;;;;;;;6.57;1.50;;;;;;;3.82;100.00;96629.00;7396007;19;20006;-53
2024/04/05 02:21:49;;;;;;;2.78;1.33;;;;;;;3.92;100.00;96626.28;7396246;19;20006;-57
2024/04/05 02:24:15;;;;;;;2.13;1.40;;;;;;;3.98;99.52;96627.09;7396235;19;20357;-57
2024/04/05 02:26:40;;;;;;;2.40;1.40;;;;;;;4.08;98.90;96626.13;7394887;19;20495;-61
2024/04/05 02:29:06;;;;;;;2.38;1.63;;;;;;;3.90;99.60;96629.75;7395607;19;19998;-53
2024/04/05 02:31:32;;;;;;;2.95;1.50;;;;;;;3.75;100.00;96634.22;7395612;19;19998;-56
2024/04/05 02:33:57;;;;;;;2.65;1.67;;;;;;;3.94;100.00;96636.63;7395867;19;20009;-54
2024/04/05 02:36:23;;;;;;;1.33;1.23;;;;;;;3.60;100.00;96632.63;7394589;19;19998;-59
2024/04/05 02:38:48;;;;;;;6.25;1.60;;;;;;;3.60;100.00;96635.22;7394029;19;20362;-58
2024/04/05 02:41:14;;;;;;;3.95;1.20;;;;;;;3.57;100.00;96635.22;7395253;19;20009;-63
2024/04/05 02:43:40;;;;;;;2.28;1.50;;;;;;;3.65;100.00;96628.25;7395603;19;20007;-58
2024/04/05 02:46:06;;;;;;;2.80;1.58;;;;;;;3.85;100.00;96627.22;7394754;19;20042;-54
2024/04/05 02:48:31;;;;;;;1.92;1.45;;;;;;;4.00;100.00;96639.16;7395601;19;20011;-55
2024/04/05 02:50:57;;;;;;;5.85;1.50;;;;;;;3.88;100.00;96634.94;7394951;19;20020;-54
2024/04/05 02:53:24;;;;;;;1.42;1.20;;;;;;;3.80;100.00;96639.34;7394902;19;20006;-56
2024/04/05 02:55:49;;;;;;;2.05;1.50;;;;;;;3.89;100.00;96641.00;7394826;19;20064;-58
2024/04/05 02:58:15;;;;;;;1.60;1.33;;;;;;;3.72;100.00;96641.13;7394793;19;20003;-54
2024/04/05 03:00:41;;;;;;;4.32;1.58;;;;;;;3.48;100.00;96640.47;7394817;19;20015;-55
2024/04/05 03:03:06;;;;;;;5.72;1.42;;;;;;;3.36;100.00;96636.25;7394305;19;20080;-58
2024/04/05 03:05:32;;;;;;;3.75;1.60;;;;;;;3.35;100.00;96635.44;7395070;19;20002;-59
2024/04/05 03:07:57;;;;;;;2.30;1.58;;;;;;;3.35;100.00;96644.91;7392892;19;20026;-61
2024/04/05 03:10:23;;;;;;;1.92;1.65;;;;;;;3.27;100.00;96648.41;7394541;19;20062;-56
2024/04/05 03:12:52;;;;;;;4.70;2.00;;;;;;;3.47;100.00;96655.16;7394507;19;20005;-57
2024/04/05 03:15:17;;;;;;;3.42;1.52;;;;;;;3.47;100.00;96664.63;7394367;19;20014;-60
2024/04/05 03:17:46;;;;;;;4.53;1.52;;;;;;;3.37;100.00;96663.88;7394674;19;20022;-53
2024/04/05 03:20:14;;;;;;;5.38;1.80;;;;;;;3.53;100.00;96659.44;7394274;19;20003;-63
2024/04/05 03:22:41;;;;;;;4.45;2.03;;;;;;;3.27;100.00;96665.63;7394169;19;19999;-58
2024/04/05 03:25:08;;;;;;;6.65;1.52;;;;;;;3.26;100.00;96667.38;7394325;19;20003;-54
2024/04/05 03:27:34;;;;;;;4.47;1.52;;;;;;;3.31;100.00;96675.09;7392528;19;20538;-56
2024/04/05 03:29:59;;;;;;;2.22;1.50;;;;;;;3.25;100.00;96677.72;7393943;19;20014;-62
2024/04/05 03:32:25;;;;;;;1.52;1.42;;;;;;;3.06;100.00;96676.97;7394309;19;20014;-59
2024/04/05 03:34:51;;;;;;;1.45;1.17;;;;;;;3.27;100.00;96671.69;7393883;19;20001;-57
2024/04/05 03:37:16;;;;;;;2.47;1.60;;;;;;;3.53;100.00;96675.78;7393862;19;19991;-58
2024/04/05 03:39:42;;;;;;;6.70;1.80;;;;;;;3.61;100.00;96678.31;7394069;19;19999;-61
2024/04/05 03:42:08;;;;;;;2.78;1.50;;;;;;;3.64;100.00;96677.41;7393730;19;19999;-59
2024/04/05 03:44:34;;;;;;;2.75;1.30;;;;;;;3.44;100.00;96675.88;7393556;19;20355;-57
2024/04/05 03:46:59;;;;;;;4.93;1.63;;;;;;;3.60;100.00;96683.50;7392523;19;19999;-58
2024/04/05 03:49:28;;;;;;;1.60;1.33;;;;;;;3.48;100.00;96684.44;7398108;19;19999;-54
2024/04/05 03:51:54;;;;;;;3.47;1.27;;;;;;;3.35;100.00;96679.38;7401201;19;20032;-58
2024/04/05 03:54:19;;;;;;;2.50;1.30;;;;;;;3.31;100.00;96688.00;7401073;19;20322;-57
2024/04/05 03:56:45;;;;;;;1.80;1.23;;;;;;;3.22;100.00;96686.34;7400805;19;20482;-54
2024/04/05 03:59:10;;;;;;;5.97;1.30;;;;;;;3.39;100.00;96682.78;7400650;19;20400;-60
2024/04/05 04:01:36;;;;;;;2.25;1.50;;;;;;;3.62;100.00;96690.41;7398979;19;20027;-60
2024/04/05 04:04:01;;;;;;;3.30;1.35;;;;;;;3.61;100.00;96688.66;7398966;19;20007;-59
2024/04/05 04:06:27;;;;;;;2.58;1.40;;;;;;;3.77;100.00;96702.31;7399555;19;20465;-60
2024/04/05 04:08:52;;;;;;;6.88;1.20;;;;;;;3.81;100.00;96698.00;7400296;19;20022;-54
2024/04/05 04:11:18;;;;;;;2.38;1.20;;;;;;;3.78;100.00;96698.91;7400186;19;19999;-60
2024/04/05 04:13:43;;;;;;;3.28;1.38;;;;;;;3.84;100.00;96694.53;7400613;19;20062;-59
2024/04/05 04:16:09;;;;;;;2.08;1.20;;;;;;;4.11;100.00;96697.72;7399993;19;20461;-56
2024/04/05 04:18:35;;;;;;;6.28;1.45;;;;;;;4.13;100.00;96707.19;7399987;19;20034;-53
2024/04/05 04:21:02;;;;;;;2.17;1.40;;;;;;;4.06;100.00;96705.53;7399861;19;20013;-58
2024/04/05 04:23:28;;;;;;;4.70;1.70;;;;;;;4.16;100.00;96709.75;7399805;19;20030;-56
2024/04/05 04:25:55;;;;;;;1.63;1.52;;;;;;;4.12;100.00;96707.22;7399565;19;19999;-59
2024/04/05 04:28:22;;;;;;;1.88;1.30;;;;;;;4.14;100.00;96706.34;7399639;19;19999;-58
2024/04/05 04:30:48;;;;;;;2.15;1.50;;;;;;;4.20;100.00;96726.13;7399462;19;19995;-59
2024/04/05 04:33:14;;;;;;;2.92;1.70;;;;;;;4.59;100.00;96727.47;7399495;19;20531;-58
2024/04/05 04:35:45;;;;;;;1.20;1.10;;;;;;;5.40;94.91;96726.44;7399382;19;20083;-57
2024/04/05 04:38:12;;;;;;;2.65;1.67;;;;;;;7.10;84.96;96735.69;7399660;19;20360;-58
2024/04/05 04:40:38;;;;;;;1.23;1.13;;;;;;;7.90;78.29;96738.22;7399163;19;20008;-60
2024/04/05 04:43:07;;;;;;;4.43;1.10;;;;;;;8.01;75.44;96752.75;7399526;19;20002;-59
2024/04/05 04:45:33;;;;;;;4.97;1.27;;;;;;;10.07;67.97;96763.53;7399110;19;20010;-60
2024/04/05 04:47:58;;;;;;;2.50;1.25;;;;;;;12.84;57.77;96780.38;7397246;19;20006;-58
2024/04/05 04:50:25;;;;;;;6.60;1.48;;;;;;;15.17;50.41;96779.94;7398874;19;20471;-57
2024/04/05 04:52:50;;;;;;;5.00;0.90;;;;;;;15.03;49.07;96781.50;7398813;19;20015;-56
2024/04/05 04:55:17;;;;;;;1.30;1.20;;;;;;;15.80;47.18;96785.38;7399154;19;20003;-58
2024/04/05 04:57:43;;;;;;;2.25;1.20;;;;;;;16.19;46.58;96787.69;7398705;19;19995;-61
2024/04/05 05:00:09;;;;;;;5.63;1.20;;;;;;;17.15;44.47;96794.47;7396351;19;20772;-59
2024/04/05 05:02:36;;;;;;;1.92;1.05;;;;;;;16.78;44.92;96781.66;7398139;19;20002;-58
2024/04/05 05:05:03;;;;;;;1.10;1.00;;;;;;;17.60;43.50;96786.44;7398368;19;20030;-59
2024/04/05 05:07:28;;;;;;;3.45;0.95;;;;;;;18.87;40.36;96786.31;7396786;19;20035;-59
2024/04/05 05:09:54;;;;;;;2.67;1.13;;;;;;;19.18;40.94;96789.53;7398300;19;19999;-60
2024/04/05 05:12:19;;;;;;;2.25;1.10;;;;;;;20.00;39.66;96795.31;7398277;19;20006;-56
2024/04/05 05:14:45;;;;;;;2.25;1.20;;;;;;;19.80;39.71;96798.47;7398182;19;20009;-55
2024/04/05 05:17:10;;;;;;;2.55;1.10;;;;;;;20.57;38.19;96807.13;7398318;19;20013;-59
2024/04/05 05:19:36;;;;;;;1.83;1.00;;;;;;;21.24;37.98;96798.63;7398328;19;19999;-63
2024/04/05 05:22:02;;;;;;;2.10;1.00;;;;;;;21.96;38.03;96799.25;7397789;19;19991;-56
2024/04/05 05:24:27;;;;;;;1.30;0.90;;;;;;;22.94;35.42;96808.25;7398544;19;20038;-56
2024/04/05 05:26:53;;;;;;;2.25;1.10;;;;;;;22.72;36.62;96804.69;7396767;19;20341;-61
2024/04/05 05:29:20;;;;;;;4.15;1.10;;;;;;;21.71;38.67;96801.16;7397822;19;20006;-61
2024/04/05 05:31:45;;;;;;;2.45;0.88;;;;;;;23.16;33.89;96809.94;7397468;19;20002;-60
2024/04/05 05:34:11;;;;;;;2.00;1.00;;;;;;;23.82;33.39;96807.03;7397411;19;19999;-57
2024/04/05 05:36:36;;;;;;;1.40;1.08;;;;;;;24.81;32.54;96804.50;7397339;19;20006;-61
2024/04/05 05:39:03;;;;;;;3.28;0.75;;;;;;;23.13;36.65;96791.53;7397267;19;20005;-60
2024/04/05 05:41:29;;;;;;;3.42;0.95;;;;;;;23.88;32.90;96800.28;7397543;19;20014;-57
2024/04/05 05:43:55;;;;;;;0.50;0.50;;;;;;;25.05;29.78;96805.91;7397076;19;20547;-58
2024/04/05 05:46:21;;;;;;;0.80;0.80;;;;;;;25.36;29.52;96792.31;7396714;19;20041;-58
2024/04/05 05:48:48;;;;;;;1.90;0.60;;;;;;;23.87;29.67;96793.28;7396974;19;20016;-56
2024/04/05 05:51:14;;;;;;;3.03;0.80;;;;;;;25.24;28.59;96797.84;7396826;19;20009;-58
2024/04/05 05:53:40;;;;;;;1.05;0.55;;;;;;;24.75;27.71;96800.59;7397215;19;20011;-56
2024/04/05 05:56:06;;;;;;;2.17;0.80;;;;;;;24.86;30.29;96800.41;7397091;19;20002;-62
2024/04/05 05:58:31;;;;;;;1.40;0.57;;;;;;;23.54;28.87;96804.13;7396656;19;20337;-58
2024/04/05 06:00:57;;;;;;;1.10;0.60;;;;;;;25.72;27.43;96811.25;7396519;19;19999;-60
2024/04/05 06:03:22;;;;;;;1.92;0.80;;;;;;;24.40;30.43;96804.63;7395591;19;20003;-57
2024/04/05 06:05:51;;;;;;;2.15;0.70;;;;;;;26.47;26.80;96800.53;7396376;19;20020;-56
2024/04/05 06:08:17;;;;;;;5.07;0.70;;;;;;;27.98;25.45;96809.47;7394956;19;20026;-56
2024/04/05 06:10:43;;;;;;;0.80;0.70;;;;;;;24.64;29.22;96798.03;7396198;19;19994;-54
2024/04/05 06:13:08;;;;;;;2.28;1.00;;;;;;;25.14;28.57;96805.06;7395547;19;19998;-56
2024/04/05 06:15:34;;;;;;;0.50;0.50;;;;;;;24.95;28.69;96805.94;7396072;19;20070;-55
2024/04/05 06:17:59;;;;;;;2.10;0.70;;;;;;;26.92;26.03;96808.63;7396014;19;20005;-58
2024/04/05 06:20:25;;;;;;;3.78;0.68;;;;;;;26.16;27.88;96799.03;7396382;19;20090;-53
2024/04/05 06:22:51;;;;;;;1.73;1.00;;;;;;;25.60;28.68;96799.88;7396267;19;20018;-62
2024/04/05 06:25:17;;;;;;;3.10;0.98;;;;;;;23.75;30.27;96796.03;7396146;19;20002;-61
2024/04/05 06:27:42;;;;;;;1.70;1.27;;;;;;;22.65;33.30;96791.06;7394742;19;19998;-58
2024/04/05 06:30:09;;;;;;;4.35;1.50;;;;;;;21.28;33.96;96781.44;7395585;19;20042;-58
2024/04/05 06:32:34;;;;;;;3.80;1.98;;;;;;;20.93;33.78;96785.88;7395590;19;20007;-59
2024/04/05 06:35:00;;;;;;;2.42;1.52;;;;;;;19.96;36.63;96792.06;7395839;19;20009;-53
2024/04/05 06:37:26;;;;;;;2.22;1.38;;;;;;;20.53;36.16;96794.19;7395681;19;20466;-55
2024/04/05 06:39:55;;;;;;;7.22;2.30;;;;;;;20.37;36.61;96794.44;7395312;19;20114;-53
2024/04/05 06:42:23;;;;;;;3.88;1.80;;;;;;;20.70;36.76;96799.06;7395222;19;20468;-55
2024/04/05 06:44:54;;;;;;;3.65;1.88;;;;;;;21.04;38.13;96806.31;7395115;19;20030;-55
2024/04/05 06:47:21;;;;;;;4.65;1.75;;;;;;;22.51;32.97;96815.31;7394415;19;20406;-58
2024/04/05 06:49:46;;;;;;;3.58;1.48;;;;;;;21.76;34.04;96816.78;7395115;19;20013;-59
2024/04/05 06:52:13;;;;;;;3.20;1.45;;;;;;;21.43;34.32;96821.13;7395470;19;20006;-54
2024/04/05 06:54:43;;;;;;;2.35;1.25;;;;;;;21.44;33.48;96818.34;7394909;19;19999;-56
2024/04/05 06:57:12;;;;;;;1.30;1.00;;;;;;;21.13;35.39;96820.72;7394931;19;20155;-58
2024/04/05 06:59:38;;;;;;;1.52;0.77;;;;;;;20.83;34.27;96824.75;7394850;19;20484;-55
2024/04/05 07:02:04;;;;;;;1.45;0.80;;;;;;;19.18;36.50;96810.75;7395252;19;19998;-54
2024/04/05 07:04:31;;;;;;;1.92;0.77;;;;;;;20.36;35.10;96819.31;7393562;19;20003;-59
2024/04/05 07:06:56;;;;;;;3.13;0.80;;;;;;;20.47;37.06;96813.22;7393997;19;20369;-52
2024/04/05 07:09:28;;;;;;;1.80;0.82;;;;;;;19.97;38.15;96819.44;7395012;19;20023;-56
2024/04/05 07:11:53;;;;;;;0.93;0.70;;;;;;;20.51;35.29;96823.53;7394642;19;20338;-62
2024/04/05 07:14:19;;;;;;;3.90;0.82;;;;;;;21.19;35.54;96833.53;7394435;19;20003;-59
2024/04/05 07:16:46;;;;;;;1.83;0.65;;;;;;;21.88;32.85;96838.09;7394479;19;20078;-58
2024/04/05 07:19:12;;;;;;;3.33;0.70;;;;;;;20.44;35.30;96832.91;7394689;19;20344;-56
2024/04/05 07:21:38;;;;;;;4.38;0.73;;;;;;;21.11;35.71;96837.75;7394286;19;20012;-58
2024/04/05 07:24:05;;;;;;;1.10;0.70;;;;;;;20.64;35.36;96844.69;7397900;19;20002;-57
2024/04/05 07:26:31;;;;;;;1.27;0.52;;;;;;;21.48;34.24;96855.34;7400939;19;20478;-56
2024/04/05 07:28:57;;;;;;;3.40;0.60;;;;;;;20.46;36.98;96844.25;7401902;19;19999;-58
2024/04/05 07:31:23;;;;;;;1.65;0.60;;;;;;;21.18;34.73;96850.47;7400160;19;20481;-57
2024/04/05 07:33:49;;;;;;;1.00;0.60;;;;;;;21.41;35.97;96847.00;7401891;19;20002;-54
2024/04/05 07:36:16;;;;;;;0.88;0.70;;;;;;;20.91;34.14;96850.75;7401318;19;19995;-56
2024/04/05 07:38:42;;;;;;;0.82;0.70;;;;;;;21.04;34.96;96848.03;7401280;19;20019;-57
2024/04/05 07:41:08;;;;;;;1.33;0.80;;;;;;;20.81;34.93;96853.22;7401212;19;19994;-61
2024/04/05 07:43:33;;;;;;;0.63;0.50;;;;;;;21.59;35.00;96848.22;7401264;19;20005;-60
2024/04/05 07:45:59;;;;;;;1.00;0.50;;;;;;;20.33;35.48;96845.19;7400916;19;19998;-52
2024/04/05 07:48:25;;;;;;;0.73;0.50;;;;;;;21.38;34.73;96853.41;7401321;19;20005;-55
2024/04/05 07:50:53;;;;;;;1.40;0.52;;;;;;;21.40;34.30;96855.97;7401225;19;20039;-57
2024/04/05 07:53:19;;;;;;;1.55;0.65;;;;;;;21.45;34.49;96859.09;7400749;19;20016;-57
2024/04/05 07:55:45;;;;;;;3.20;0.50;;;;;;;22.07;35.02;96862.25;7400731;19;20009;-54
2024/04/05 07:58:11;;;;;;;1.05;0.73;;;;;;;20.89;34.53;96857.97;7400955;19;19995;-53
2024/04/05 08:00:36;;;;;;;3.67;0.77;;;;;;;20.88;35.73;96853.59;7400711;19;20468;-51
2024/04/05 08:03:03;;;;;;;1.02;0.50;;;;;;;21.08;36.61;96855.63;7399762;19;20013;-59
2024/04/05 08:05:29;;;;;;;1.73;0.90;;;;;;;21.87;34.67;96871.84;7400497;19;20127;-52
2024/04/05 08:07:56;;;;;;;3.17;0.60;;;;;;;21.27;33.82;96864.88;7398548;19;20023;-60
2024/04/05 08:10:22;;;;;;;1.33;0.60;;;;;;;20.31;35.18;96854.19;7400343;19;20002;-56
2024/04/05 08:12:50;;;;;;;2.88;0.50;;;;;;;20.45;35.61;96854.06;7400192;19;20066;-53
2024/04/05 08:15:15;;;;;;;1.15;0.40;;;;;;;20.35;36.72;96852.19;7400126;19;19998;-58
2024/04/05 08:17:41;;;;;;;2.03;0.50;;;;;;;20.96;37.77;96867.22;7399958;19;20001;-57
2024/04/05 08:20:07;;;;;;;2.80;0.55;;;;;;;20.31;33.76;96867.47;7400114;19;19998;-56
2024/04/05 08:22:33;;;;;;;1.02;0.50;;;;;;;21.71;33.37;96878.34;7399886;19;19994;-52
2024/04/05 08:25:00;;;;;;;0.40;0.40;;;;;;;21.47;33.29;96862.50;7400247;19;20029;-57
2024/04/05 08:27:28;;;;;;;0.85;0.50;;;;;;;22.08;32.58;96857.78;7398042;19;20465;-56
2024/04/05 08:29:53;;;;;;;0.60;0.60;;;;;;;21.78;31.95;96859.25;7399769;19;20036;-54
2024/04/05 08:32:19;;;;;;;0.52;0.38;;;;;;;22.33;34.00;96845.16;7399495;19;20006;-56
2024/04/05 08:34:45;;;;;;;0.90;0.40;;;;;;;21.64;33.11;96858.50;7399716;19;20058;-57
2024/04/05 08:37:11;;;;;;;1.90;0.55;;;;;;;21.53;32.77;96850.53;7399508;19;20021;-57
2024/04/05 08:39:36;;;;;;;0.38;0.38;;;;;;;22.16;33.01;96843.88;7399669;19;20018;-57
2024/04/05 08:42:16;;;;;;;0.77;0.40;;;;;;;21.95;33.58;96839.31;7399645;19;20498;-57
2024/04/05 08:44:49;;;;;;;1.40;0.50;;;;;;;21.76;31.56;96837.25;7399337;19;20354;-57
2024/04/05 08:47:16;;;;;;;2.08;0.65;;;;;;;20.90;34.66;96836.63;7397722;19;20006;-59
2024/04/05 08:49:49;;;;;;;0.60;0.47;;;;;;;21.71;31.88;96845.56;7399063;19;20009;-56
2024/04/05 08:52:14;;;;;;;0.70;0.40;;;;;;;22.43;31.48;96856.75;7398929;19;20009;-55
2024/04/05 08:54:40;;;;;;;1.70;0.45;;;;;;;20.52;33.39;96850.91;7398952;19;20011;-57
2024/04/05 08:57:08;;;;;;;1.08;0.50;;;;;;;20.52;35.10;96861.53;7398714;19;20007;-60
2024/04/05 08:59:35;;;;;;;4.70;0.43;;;;;;;20.34;36.52;96853.97;7399061;19;20003;-57
2024/04/05 09:02:01;;;;;;;1.20;0.40;;;;;;;19.21;35.52;96850.31;7398572;19;19995;-59
2024/04/05 09:04:28;;;;;;;0.70;0.50;;;;;;;19.88;34.43;96858.09;7396654;19;19998;-56
2024/04/05 09:10:21;;;;;;;3.60;0.40;;;;;;;19.88;35.63;96843.03;7398698;19;19989;-56
2024/04/05 09:12:57;;;;;;;0.55;0.40;;;;;;;20.12;34.99;96855.53;7398023;19;20362;-55
2024/04/05 09:15:32;;;;;;;4.05;0.47;;;;;;;19.80;35.00;96856.00;7397931;19;20010;-59
2024/04/05 09:18:04;;;;;;;0.55;0.50;;;;;;;19.57;34.84;96855.81;7397724;19;20066;-56
2024/04/05 09:20:59;;;;;;;0.98;0.40;;;;;;;19.42;36.48;96855.09;7398108;19;19998;-57
2024/04/05 09:23:49;;;;;;;0.80;0.40;;;;;;;20.18;36.14;96856.91;7397454;19;20002;-56
2024/04/05 09:26:39;;;;;;;0.40;0.40;;;;;;;20.33;38.18;96861.13;7391553;19;20098;-61
2024/04/05 09:29:17;;;;;;;1.10;0.50;;;;;;;19.60;34.74;96858.25;7396391;19;19999;-51
2024/04/05 09:31:46;;;;;;;0.77;0.40;;;;;;;20.58;35.89;96848.66;7397579;19;20003;-56
2024/04/05 09:35:03;;;;;;;0.45;0.40;;;;;;;19.74;41.36;96851.97;7394623;19;20342;-57
2024/04/05 09:37:28;;;;;;;0.88;0.47;;;;;;;20.17;35.90;96856.03;7397659;19;20022;-56
2024/04/05 09:39:54;;;;;;;0.85;0.40;;;;;;;19.75;36.94;96853.66;7397723;19;20019;-58
2024/04/05 09:42:23;;;;;;;1.33;0.32;;;;;;;19.83;34.36;96855.78;7397328;19;20583;-58
2024/04/05 09:44:58;;;;;;;1.17;0.50;;;;;;;19.70;35.92;96853.16;7397256;19;19999;-58
2024/04/05 09:47:27;;;;;;;0.50;0.50;;;;;;;20.32;35.64;96863.88;7394852;19;20002;-56
2024/04/05 09:49:52;;;;;;;2.30;0.30;;;;;;;20.40;34.56;96860.63;7395508;19;20028;-57
2024/04/05 09:52:24;;;;;;;1.10;0.40;;;;;;;19.94;35.14;96852.38;7397061;19;20457;-60
2024/04/05 09:54:55;;;;;;;0.55;0.45;;;;;;;19.04;38.42;96851.41;7397070;19;20457;-55
2024/04/05 09:57:21;;;;;;;1.75;0.45;;;;;;;20.10;35.48;96854.78;7396913;19;20050;-61
2024/04/05 09:59:48;;;;;;;2.13;0.40;;;;;;;20.38;35.11;96862.56;7396813;19;19998;-59
2024/04/05 10:02:18;;;;;;;1.10;0.68;;;;;;;20.33;33.72;96857.59;7396996;19;20062;-57
2024/04/05 10:04:44;;;;;;;0.30;0.30;;;;;;;20.01;34.28;96863.41;7394774;19;20011;-56
2024/04/05 10:07:11;;;;;;;0.77;0.40;;;;;;;20.61;34.97;96857.34;7396058;19;20022;-57
2024/04/05 10:09:37;;;;;;;1.52;0.55;;;;;;;21.08;33.95;96862.78;7396432;19;20006;-58
2024/04/05 10:12:14;;;;;;;0.75;0.40;;;;;;;21.29;33.78;96867.41;7396796;19;20401;-57
2024/04/05 10:14:41;;;;;;;3.40;0.65;;;;;;;21.39;35.74;96868.41;7396249;19;20003;-56
2024/04/05 10:17:12;;;;;;;0.70;0.30;;;;;;;21.20;33.10;96876.94;7396247;19;19998;-57
2024/04/05 10:19:39;;;;;;;0.43;0.30;;;;;;;20.84;32.39;96872.44;7396099;19;19999;-59
2024/04/05 10:22:05;;;;;;;0.60;0.40;;;;;;;20.95;37.43;96865.53;7395937;19;20484;-55
2024/04/05 10:24:32;;;;;;;0.52;0.50;;;;;;;21.10;35.45;96876.78;7395777;19;20374;-58
2024/04/05 10:26:58;;;;;;;0.60;0.50;;;;;;;20.26;36.01;96861.66;7395008;19;20340;-57
2024/04/05 10:29:25;;;;;;;0.47;0.40;;;;;;;21.45;34.28;96859.09;7395536;19;20002;-57
2024/04/05 10:32:09;;;;;;;2.50;0.50;;;;;;;21.71;32.64;96859.72;7395701;19;20002;-53
2024/04/05 10:34:36;;;;;;;0.75;0.40;;;;;;;21.79;32.88;96856.47;7395603;19;20006;-57
2024/04/05 10:37:13;;;;;;;0.75;0.40;;;;;;;22.35;34.85;96835.22;7395433;19;19998;-55
2024/04/05 10:39:40;;;;;;;0.50;0.47;;;;;;;22.65;31.88;96859.50;7395465;19;20015;-58
2024/04/05 10:42:06;;;;;;;4.68;0.60;;;;;;;21.54;32.89;96852.22;7395730;19;20006;-59
2024/04/05 10:44:31;;;;;;;2.22;0.40;;;;;;;21.73;33.67;96856.09;7395614;19;20014;-56
2024/04/05 10:46:57;;;;;;;1.23;0.60;;;;;;;21.19;33.29;96854.81;7394451;19;20497;-56
2024/04/05 10:49:23;;;;;;;1.08;0.50;;;;;;;19.98;35.97;96835.25;7395169;19;20002;-57
2024/04/05 10:51:57;;;;;;;1.80;0.50;;;;;;;21.11;33.94;96846.59;7395075;19;19995;-59
2024/04/05 10:54:22;;;;;;;1.10;0.40;;;;;;;21.01;33.63;96834.97;7395218;19;19995;-55
2024/04/05 10:56:48;;;;;;;3.47;0.60;;;;;;;21.81;34.86;96846.56;7395003;19;20022;-59
2024/04/05 10:59:18;;;;;;;1.13;0.50;;;;;;;21.83;32.89;96830.47;7398681;19;20011;-55
2024/04/05 11:01:44;;;;;;;0.80;0.52;;;;;;;20.90;32.77;96841.94;7402688;19;20461;-58
2024/04/05 11:04:10;;;;;;;0.60;0.50;;;;;;;20.87;35.28;96844.81;7400225;19;20014;-58
2024/04/05 11:06:37;;;;;;;0.38;0.38;;;;;;;21.83;33.59;96841.13;7402125;19;20077;-57
2024/04/05 11:09:03;;;;;;;1.02;0.43;;;;;;;21.70;31.88;96839.41;7402345;19;20532;-58
2024/04/05 11:11:29;;;;;;;0.80;0.57;;;;;;;22.32;32.34;96838.13;7402213;19;20002;-57
2024/04/05 11:14:05;;;;;;;1.33;0.52;;;;;;;21.94;33.34;96856.22;7402159;19;19998;-56
2024/04/05 11:16:35;;;;;;;0.55;0.47;;;;;;;21.58;33.65;96835.03;7402658;19;20003;-60
2024/04/05 11:19:01;;;;;;;2.35;0.57;;;;;;;22.39;31.19;96841.97;7402364;19;19999;-55
2024/04/05 11:21:26;;;;;;;2.75;0.63;;;;;;;21.49;31.62;96844.56;7401915;19;20419;-57
2024/04/05 11:23:55;;;;;;;1.58;0.60;;;;;;;21.46;32.68;96837.69;7401728;19;20010;-56
2024/04/05 11:26:32;;;;;;;2.08;0.45;;;;;;;21.52;31.61;96843.53;7401288;19;20036;-57
2024/04/05 11:28:58;;;;;;;0.77;0.30;;;;;;;21.82;30.94;96834.94;7402203;19;20006;-58
2024/04/05 11:31:28;;;;;;;0.55;0.40;;;;;;;21.80;32.83;96833.38;7401603;19;19995;-60
2024/04/05 11:33:54;;;;;;;0.93;0.32;;;;;;;21.31;29.84;96850.38;7401381;19;20023;-56
2024/04/05 11:36:26;;;;;;;3.38;0.50;;;;;;;20.77;32.97;96855.25;7401567;19;20500;-56